createdAt,value
2019-03-19T00:01:10.606Z,96646.13
2019-03-19T00:03:37.655Z,96640.98
2019-03-19T00:06:04.940Z,96638.50
2019-03-19T00:08:32.346Z,96641.16
2019-03-19T00:10:59.383Z,96639.14
2019-03-19T00:13:26.427Z,96639.05
2019-03-19T00:15:53.472Z,96648.98
2019-03-19T00:18:20.841Z,96645.13
2019-03-19T00:20:47.896Z,96646.13
2019-03-19T00:23:15.184Z,96649.53
2019-03-19T00:25:42.234Z,96645.95
2019-03-19T00:28:09.548Z,96642.18
2019-03-19T00:30:36.599Z,96646.04
2019-03-19T00:33:04.056Z,96649.06
2019-03-19T00:35:31.424Z,96643.18
2019-03-19T00:37:58.455Z,96643.97
2019-03-19T00:40:25.508Z,96645.70
2019-03-19T00:42:52.552Z,96651.66
2019-03-19T00:45:19.828Z,96660.84
2019-03-19T00:47:47.175Z,96654.95
2019-03-19T00:50:15.296Z,96642.63
2019-03-19T00:52:42.605Z,96646.19
2019-03-19T00:55:09.945Z,96639.03
2019-03-19T00:57:37.298Z,96642.98
2019-03-19T01:00:04.597Z,96650.70
2019-03-19T01:02:31.702Z,96652.28
2019-03-19T01:04:59.072Z,96644.29
2019-03-19T01:07:26.113Z,96650.72
2019-03-19T01:09:53.170Z,96644.84
2019-03-19T01:12:20.202Z,96645.13
2019-03-19T01:14:48.576Z,96650.56
2019-03-19T01:17:15.613Z,96654.24
2019-03-19T01:19:42.670Z,96645.52
2019-03-19T01:22:10.026Z,96649.23
2019-03-19T01:24:37.078Z,96648.59
2019-03-19T01:27:04.126Z,96645.39
2019-03-19T01:29:31.180Z,96648.97
2019-03-19T01:31:58.224Z,96651.73
2019-03-19T01:34:25.346Z,96649.25
2019-03-19T01:36:52.635Z,96656.78
2019-03-19T01:39:19.688Z,96658.70
2019-03-19T01:41:47.049Z,96655.76
2019-03-19T01:44:14.336Z,96651.22
2019-03-19T01:46:41.640Z,96654.98
2019-03-19T01:49:08.992Z,96650.20
2019-03-19T01:51:36.360Z,96657.47
2019-03-19T01:54:04.740Z,96649.84
2019-03-19T01:56:32.058Z,96652.14
2019-03-19T01:59:00.064Z,96651.59
2019-03-19T02:01:27.116Z,96652.88
2019-03-19T02:03:54.399Z,96659.58
2019-03-19T02:06:21.490Z,96663.52
2019-03-19T02:08:48.764Z,96665.63
2019-03-19T02:11:15.816Z,96664.70
2019-03-19T02:13:42.857Z,96657.36
2019-03-19T02:16:09.969Z,96657.09
2019-03-19T02:18:37.002Z,96655.88
2019-03-19T02:21:04.288Z,96666.98
2019-03-19T02:23:31.315Z,96663.02
2019-03-19T02:25:58.351Z,96663.27
2019-03-19T02:28:25.381Z,96662.42
2019-03-19T02:30:52.435Z,96661.03
2019-03-19T02:33:19.728Z,96660.67
2019-03-19T02:35:47.011Z,96661.96
2019-03-19T02:38:14.287Z,96667.02
2019-03-19T02:40:41.354Z,96666.69
2019-03-19T02:43:08.604Z,96668.61
2019-03-19T02:45:35.652Z,96674.30
2019-03-19T02:48:03.903Z,96670.60
2019-03-19T02:50:31.220Z,96667.27
2019-03-19T02:52:58.504Z,96670.67
2019-03-19T02:55:25.797Z,96671.70
2019-03-19T02:57:52.901Z,96667.39
2019-03-19T03:00:20.182Z,96666.55
2019-03-19T03:02:47.309Z,96673.31
2019-03-19T03:05:14.344Z,96672.05
2019-03-19T03:07:41.628Z,96674.19
2019-03-19T03:10:08.661Z,96677.25
2019-03-19T03:12:35.715Z,96673.48
2019-03-19T03:15:02.988Z,96674.05
2019-03-19T03:17:30.291Z,96673.86
2019-03-19T03:19:57.468Z,96678.64
2019-03-19T03:22:24.518Z,96690.03
2019-03-19T03:24:51.794Z,96689.02
2019-03-19T03:27:18.843Z,96686.26
2019-03-19T03:29:45.876Z,96683.13
2019-03-19T03:32:13.187Z,96683.19
2019-03-19T03:34:40.485Z,96691.27
2019-03-19T03:37:07.532Z,96693.27
2019-03-19T03:39:34.806Z,96699.70
2019-03-19T03:42:02.102Z,96703.09
2019-03-19T03:44:29.381Z,96703.75
2019-03-19T03:46:57.400Z,96706.88
2019-03-19T03:49:24.429Z,96708.99
2019-03-19T03:51:51.474Z,96715.61
2019-03-19T03:54:18.500Z,96721.67
2019-03-19T03:56:45.544Z,96723.22
2019-03-19T03:59:12.818Z,96724.14
2019-03-19T04:01:39.884Z,96720.55
2019-03-19T04:04:06.951Z,96722.20
2019-03-19T04:06:33.967Z,96724.61
2019-03-19T04:09:01.256Z,96729.12
2019-03-19T04:11:29.817Z,96728.84
2019-03-19T04:13:57.105Z,96738.02
2019-03-19T04:16:24.394Z,96741.33
2019-03-19T04:18:51.435Z,96739.86
2019-03-19T04:21:18.473Z,96739.94
2019-03-19T04:23:45.755Z,96740.95
2019-03-19T04:26:13.024Z,96742.51
2019-03-19T04:28:40.071Z,96744.89
2019-03-19T04:31:07.105Z,96750.83
2019-03-19T04:33:34.398Z,96751.36
2019-03-19T04:36:01.676Z,96754.13
2019-03-19T04:38:28.969Z,96752.89
2019-03-19T04:40:56.241Z,96756.02
2019-03-19T04:46:13.716Z,96762.27
2019-03-19T04:48:41.592Z,96772.20
2019-03-19T04:51:08.936Z,96767.42
2019-03-19T04:53:36.291Z,96772.38
2019-03-19T04:56:10.013Z,96770.81
2019-03-19T04:58:37.063Z,96772.70
2019-03-19T05:01:04.397Z,96776.57
2019-03-19T05:03:31.755Z,96776.05
2019-03-19T05:05:59.703Z,96782.13
2019-03-19T05:08:27.300Z,96770.83
2019-03-19T05:10:54.640Z,96769.19
2019-03-19T05:15:58.667Z,96774.60
2019-03-19T05:18:25.961Z,96777.63
2019-03-19T05:20:53.296Z,96776.17
2019-03-19T05:23:20.472Z,96784.71
2019-03-19T05:25:47.505Z,96791.78
2019-03-19T05:28:14.554Z,96785.17
2019-03-19T05:30:41.585Z,96793.34
2019-03-19T05:33:08.637Z,96800.70
2019-03-19T05:35:35.670Z,96798.95
2019-03-19T05:38:02.963Z,96801.25
2019-03-19T05:40:29.999Z,96799.97
2019-03-19T05:42:57.329Z,96805.95
2019-03-19T05:45:24.673Z,96809.06
2019-03-19T05:47:51.708Z,96812.66
2019-03-19T05:50:18.766Z,96812.28
2019-03-19T05:52:48.269Z,96811.88
2019-03-19T05:55:14.786Z,96811.88
2019-03-19T05:57:49.559Z,96819.23
2019-03-19T06:00:10.653Z,96821.02
2019-03-19T06:02:38.892Z,96820.52
2019-03-19T06:05:05.947Z,96829.71
2019-03-19T06:07:33.052Z,96824.36
2019-03-19T06:10:00.378Z,96832.06
2019-03-19T06:12:27.657Z,96838.48
2019-03-19T06:14:54.981Z,96845.13
2019-03-19T06:17:22.075Z,96836.30
2019-03-19T06:19:49.065Z,96841.24
2019-03-19T06:22:16.095Z,96838.93
2019-03-19T06:24:43.211Z,96837.91
2019-03-19T06:27:10.243Z,96844.45
2019-03-19T06:29:37.580Z,96835.45
2019-03-19T06:32:04.932Z,96839.48
2019-03-19T06:34:32.288Z,96841.28
2019-03-19T06:36:59.658Z,96844.87
2019-03-19T06:39:27.016Z,96837.17
2019-03-19T06:41:54.050Z,96842.41
2019-03-19T06:44:21.103Z,96848.23
2019-03-19T06:46:48.141Z,96846.27
2019-03-19T06:49:15.516Z,96847.49
2019-03-19T06:51:42.851Z,96850.72
2019-03-19T06:54:10.154Z,96851.47
2019-03-19T06:56:38.264Z,96852.57
2019-03-19T06:59:05.314Z,96853.90
2019-03-19T07:01:32.357Z,96855.19
2019-03-19T07:03:59.408Z,96860.30
2019-03-19T07:06:26.451Z,96858.70
2019-03-19T07:08:53.824Z,96860.54
2019-03-19T07:11:20.876Z,96863.27
2019-03-19T07:13:48.161Z,96867.30
2019-03-19T07:16:15.203Z,96860.17
2019-03-19T07:18:42.531Z,96865.97
2019-03-19T07:21:09.582Z,96873.06
2019-03-19T07:23:36.949Z,96872.88
2019-03-19T07:26:03.998Z,96882.41
2019-03-19T07:28:32.361Z,96885.94
2019-03-19T07:30:59.715Z,96886.11
2019-03-19T07:33:27.088Z,96887.65
2019-03-19T07:35:54.141Z,96888.17
2019-03-19T07:38:21.183Z,96895.87
2019-03-19T07:40:48.244Z,96893.05
2019-03-19T07:43:15.572Z,96893.96
2019-03-19T07:45:42.944Z,96897.44
2019-03-19T07:48:10.282Z,96896.07
2019-03-19T07:50:37.637Z,96907.03
2019-03-19T07:53:05.003Z,96907.17
2019-03-19T07:55:32.346Z,96914.62
2019-03-19T07:57:59.625Z,96915.81
2019-03-19T08:00:26.673Z,96915.50
2019-03-19T08:02:53.714Z,96919.00
2019-03-19T08:05:20.764Z,96912.33
2019-03-19T08:07:48.128Z,96908.05
2019-03-19T08:10:15.454Z,96916.63
2019-03-19T08:12:42.812Z,96915.91
2019-03-19T08:15:09.856Z,96918.86
2019-03-19T08:17:36.902Z,96926.03
2019-03-19T08:20:04.274Z,96930.92
2019-03-19T08:22:31.332Z,96925.80
2019-03-19T08:24:59.439Z,96925.77
2019-03-19T08:27:26.487Z,96929.59
2019-03-19T08:29:54.904Z,96936.22
2019-03-19T08:32:22.208Z,96941.16
2019-03-19T08:34:49.515Z,96937.73
2019-03-19T08:37:16.871Z,96945.90
2019-03-19T08:39:44.224Z,96940.02
2019-03-19T08:42:11.615Z,96942.47
2019-03-19T08:44:38.864Z,96941.69
2019-03-19T08:47:05.912Z,96945.30
2019-03-19T08:49:32.950Z,96942.94
2019-03-19T08:52:00.300Z,96948.00
2019-03-19T08:54:27.340Z,96948.81
2019-03-19T08:56:54.624Z,96946.64
2019-03-19T08:59:21.939Z,96947.27
2019-03-19T09:01:49.296Z,96944.95
2019-03-19T09:04:16.396Z,96941.19
2019-03-19T09:06:43.451Z,96943.39
2019-03-19T09:09:10.477Z,96950.94
2019-03-19T09:11:37.808Z,96952.31
2019-03-19T09:14:05.149Z,96958.89
2019-03-19T09:16:32.502Z,96950.75
2019-03-19T09:18:59.877Z,96954.55
2019-03-19T09:21:27.233Z,96957.38
2019-03-19T09:23:54.265Z,96963.30
2019-03-19T09:26:21.312Z,96966.92
2019-03-19T09:28:48.665Z,96970.96
2019-03-19T09:31:16.022Z,96968.88
2019-03-19T09:33:43.373Z,96968.41
2019-03-19T09:36:10.656Z,96967.66
2019-03-19T09:38:38.783Z,96970.16
2019-03-19T09:41:06.156Z,96972.88
2019-03-19T09:43:33.527Z,96967.39
2019-03-19T09:46:00.864Z,96965.30
2019-03-19T09:48:28.379Z,96959.81
2019-03-19T09:50:55.799Z,96968.62
2019-03-19T09:53:22.856Z,96968.53
2019-03-19T09:55:50.184Z,96964.71
2019-03-19T09:58:17.545Z,96973.22
2019-03-19T10:00:44.913Z,96968.73
2019-03-19T10:03:12.249Z,96967.93
2019-03-19T10:05:40.256Z,96970.77
2019-03-19T10:08:07.371Z,96968.03
2019-03-19T10:10:34.829Z,96973.86
2019-03-19T10:13:02.286Z,96971.44
2019-03-19T10:15:29.327Z,96970.11
2019-03-19T10:17:56.381Z,96978.55
2019-03-19T10:20:23.415Z,96967.25
2019-03-19T10:22:50.783Z,96970.98
2019-03-19T10:25:18.260Z,96971.83
2019-03-19T10:27:45.315Z,96966.34
2019-03-19T10:30:12.667Z,96972.66
2019-03-19T10:32:40.017Z,96977.00
2019-03-19T10:35:07.058Z,96980.05
2019-03-19T10:37:34.173Z,96979.06
2019-03-19T10:40:01.218Z,96981.53
2019-03-19T10:42:28.261Z,96976.77
2019-03-19T10:44:55.296Z,96980.09
2019-03-19T10:47:22.695Z,96985.61
2019-03-19T10:49:49.977Z,96984.66
2019-03-19T10:52:17.304Z,96982.41
2019-03-19T10:54:45.405Z,96983.02
2019-03-19T10:57:12.457Z,96978.53
2019-03-19T10:59:48.778Z,96986.45
2019-03-19T11:02:08.584Z,96985.94
2019-03-19T11:04:35.615Z,96987.23
2019-03-19T11:07:02.973Z,96981.17
2019-03-19T11:09:30.324Z,96987.06
2019-03-19T11:11:57.377Z,96991.25
2019-03-19T11:14:24.420Z,96999.38
2019-03-19T11:16:51.800Z,96992.20
2019-03-19T11:19:18.853Z,96983.72
2019-03-19T11:21:47.304Z,96994.13
2019-03-19T11:24:15.685Z,96993.42
2019-03-19T11:26:43.040Z,96991.10
2019-03-19T11:29:10.397Z,96984.14
2019-03-19T11:31:37.750Z,96985.47
2019-03-19T11:34:05.309Z,96981.27
2019-03-19T11:36:32.348Z,96984.05
2019-03-19T11:38:59.732Z,96991.49
2019-03-19T11:41:26.770Z,96991.77
2019-03-19T11:43:54.117Z,96991.44
2019-03-19T11:46:21.510Z,96990.20
2019-03-19T11:48:48.564Z,96993.34
2019-03-19T11:51:15.876Z,96987.05
2019-03-19T11:53:43.229Z,96995.22
2019-03-19T11:56:10.264Z,96992.11
2019-03-19T11:58:37.388Z,96995.63
2019-03-19T12:01:04.425Z,96991.34
2019-03-19T12:03:31.568Z,96995.53
2019-03-19T12:05:58.603Z,96986.70
2019-03-19T12:08:25.699Z,96989.70
2019-03-19T12:10:53.076Z,96991.70
2019-03-19T12:13:20.126Z,96988.14
2019-03-19T12:15:47.161Z,96984.34
2019-03-19T12:18:14.209Z,96988.77
2019-03-19T12:20:42.461Z,96980.33
2019-03-19T12:23:09.751Z,96981.87
2019-03-19T12:25:37.053Z,96980.00
2019-03-19T12:28:04.100Z,96978.21
2019-03-19T12:30:31.229Z,96981.17
2019-03-19T12:32:58.277Z,96983.58
2019-03-19T12:35:25.316Z,96986.88
2019-03-19T12:37:52.653Z,96980.03
2019-03-19T12:40:19.688Z,96973.89
2019-03-19T12:42:47.992Z,96972.44
2019-03-19T12:45:15.053Z,96966.90
2019-03-19T12:47:42.382Z,96963.14
2019-03-19T12:50:09.429Z,96965.27
2019-03-19T12:52:36.785Z,96962.14
2019-03-19T12:55:04.158Z,96964.80
2019-03-19T12:57:31.278Z,96972.25
2019-03-19T12:59:58.323Z,96977.88
2019-03-19T13:02:25.613Z,96979.52
2019-03-19T13:04:52.661Z,96979.66
2019-03-19T13:07:19.702Z,96974.14
2019-03-19T13:09:47.041Z,96969.16
2019-03-19T13:12:14.074Z,96970.11
2019-03-19T13:14:41.121Z,96961.84
2019-03-19T13:17:08.512Z,96968.28
2019-03-19T13:19:35.565Z,96970.50
2019-03-19T13:22:02.594Z,96972.69
2019-03-19T13:24:29.645Z,96961.33
2019-03-19T13:26:56.929Z,96967.58
2019-03-19T13:29:23.978Z,96969.19
2019-03-19T13:31:51.019Z,96970.54
2019-03-19T13:34:18.319Z,96969.03
2019-03-19T13:36:45.693Z,96972.17
2019-03-19T13:39:13.048Z,96975.59
2019-03-19T13:41:40.090Z,96967.33
2019-03-19T13:44:07.137Z,96970.24
2019-03-19T13:46:34.517Z,96974.55
2019-03-19T13:49:01.878Z,96971.26
2019-03-19T13:51:29.209Z,96971.38
2019-03-19T13:53:56.571Z,96977.44
2019-03-19T13:56:24.434Z,96971.30
2019-03-19T13:58:51.808Z,96964.55
2019-03-19T14:01:18.841Z,96973.02
2019-03-19T14:03:45.882Z,96975.63
2019-03-19T14:06:12.939Z,96980.80
2019-03-19T14:08:39.969Z,96980.46
2019-03-19T14:11:07.017Z,96980.03
2019-03-19T14:13:34.049Z,96983.70
2019-03-19T14:16:01.430Z,96988.50
2019-03-19T14:18:28.537Z,96981.38
2019-03-19T14:20:55.959Z,96987.47
2019-03-19T14:23:23.241Z,96996.23
2019-03-19T14:25:50.756Z,96997.16
2019-03-19T14:28:19.706Z,96999.23
2019-03-19T14:30:46.873Z,96997.38
2019-03-19T14:33:13.896Z,96993.61
2019-03-19T14:35:40.941Z,97001.98
2019-03-19T14:38:08.046Z,96992.63
2019-03-19T14:40:35.099Z,96995.22
2019-03-19T14:43:02.133Z,96990.34
2019-03-19T14:45:29.494Z,96987.00
2019-03-19T14:47:56.525Z,96989.73
2019-03-19T14:50:23.576Z,96985.57
2019-03-19T14:52:50.616Z,96987.64
2019-03-19T14:55:17.661Z,96985.80
2019-03-19T14:57:44.697Z,96982.53
2019-03-19T15:00:11.744Z,96992.23
2019-03-19T15:02:39.128Z,96998.05
2019-03-19T15:05:06.196Z,96985.42
2019-03-19T15:07:33.552Z,96997.97
2019-03-19T15:10:00.908Z,96988.17
2019-03-19T15:12:29.015Z,96984.88
2019-03-19T15:14:56.065Z,96988.59
2019-03-19T15:17:23.096Z,96988.39
2019-03-19T15:19:50.151Z,96991.73
2019-03-19T15:22:17.483Z,96997.73
2019-03-19T15:24:44.680Z,96998.32
2019-03-19T15:27:12.069Z,96997.55
2019-03-19T15:29:39.440Z,97000.61
2019-03-19T15:32:06.778Z,97006.11
2019-03-19T15:34:33.813Z,97003.45
2019-03-19T15:37:01.827Z,97010.77
2019-03-19T15:39:28.868Z,97010.58
2019-03-19T15:41:56.196Z,97006.61
2019-03-19T15:44:23.581Z,97007.72
2019-03-19T15:46:50.927Z,97004.93
2019-03-19T15:49:18.286Z,97012.67
2019-03-19T15:51:45.637Z,97014.41
2019-03-19T15:54:12.971Z,97014.45
2019-03-19T15:56:40.324Z,97013.08
2019-03-19T15:59:08.919Z,97015.84
2019-03-19T16:04:15.019Z,97026.98
2019-03-19T16:09:31.498Z,97031.16
2019-03-19T16:12:00.912Z,97033.63
2019-03-19T16:20:05.610Z,97037.57
2019-03-19T16:25:06.281Z,97041.16
2019-03-19T16:30:19.956Z,97042.28
2019-03-19T16:32:57.063Z,97054.56
2019-03-19T16:35:26.306Z,97049.61
2019-03-19T16:38:02.523Z,97058.72
2019-03-19T16:40:34.355Z,97057.78
2019-03-19T16:45:32.899Z,97065.34
2019-03-19T16:48:00.939Z,97073.58
2019-03-19T16:50:28.125Z,97074.17
2019-03-19T16:53:02.503Z,97073.14
2019-03-19T17:00:56.350Z,97082.58
2019-03-19T17:03:30.341Z,97086.34
2019-03-19T17:06:02.807Z,97091.88
2019-03-19T17:14:06.327Z,97094.45
2019-03-19T17:16:39.261Z,97107.63
2019-03-19T17:19:10.691Z,97108.20
2019-03-19T17:21:42.066Z,97115.93
2019-03-19T17:24:11.643Z,97116.00
2019-03-19T17:26:39.080Z,97132.44
2019-03-19T17:29:06.108Z,97131.76
2019-03-19T17:36:53.287Z,97136.06
2019-03-19T17:39:20.653Z,97136.96
2019-03-19T17:41:52.193Z,97142.81
2019-03-19T17:44:24.593Z,97140.91
2019-03-19T17:46:54.832Z,97143.23
2019-03-19T17:49:24.009Z,97143.45
2019-03-19T17:51:51.179Z,97141.64
2019-03-19T17:54:19.333Z,97145.20
2019-03-19T17:56:49.431Z,97151.16
2019-03-19T17:59:18.940Z,97153.43
2019-03-19T18:01:46.492Z,97156.27
2019-03-19T18:04:22.004Z,97164.19
2019-03-19T18:06:49.602Z,97168.86
2019-03-19T18:09:16.972Z,97171.50
2019-03-19T18:11:45.744Z,97176.48
2019-03-19T18:14:20.063Z,97175.14
2019-03-19T18:19:21.038Z,97185.18
2019-03-19T18:21:49.520Z,97194.08
2019-03-19T18:24:22.990Z,97191.11
2019-03-19T18:26:50.559Z,97192.61
2019-03-19T18:29:24.300Z,97195.66
2019-03-19T18:31:51.348Z,97194.47
2019-03-19T18:34:26.768Z,97196.80
2019-03-19T18:36:54.212Z,97199.33
2019-03-19T18:39:25.768Z,97200.20
2019-03-19T18:41:55.400Z,97201.69
2019-03-19T18:47:12.215Z,97207.23
2019-03-19T18:49:40.509Z,97203.55
2019-03-19T18:52:12.340Z,97204.48
2019-03-19T18:54:40.839Z,97208.09
2019-03-19T18:57:07.894Z,97210.78
2019-03-19T18:59:42.096Z,97212.73
2019-03-19T19:02:12.358Z,97211.64
2019-03-19T19:04:51.880Z,97218.47
2019-03-19T19:07:19.204Z,97219.14
2019-03-19T19:09:47.690Z,97223.14
2019-03-19T19:12:15.059Z,97224.97
2019-03-19T19:17:46.459Z,97228.97
2019-03-19T19:20:14.623Z,97230.19
2019-03-19T19:22:42.149Z,97232.33
2019-03-19T19:25:27.668Z,97234.84
2019-03-19T19:27:54.961Z,97238.64
2019-03-19T19:30:24.147Z,97238.84
2019-03-19T19:33:01.689Z,97248.39
2019-03-19T19:35:23.323Z,97248.95
2019-03-19T19:43:11.548Z,97257.27
2019-03-19T19:45:39.712Z,97261.52
2019-03-19T19:48:07.965Z,97255.72
2019-03-19T19:50:41.143Z,97256.80
2019-03-19T19:55:41.713Z,97260.89
2019-03-19T19:58:10.148Z,97265.97
2019-03-19T20:00:52.490Z,97265.40
2019-03-19T20:03:20.771Z,97270.19
2019-03-19T20:05:49.207Z,97268.17
2019-03-19T20:08:21.934Z,97269.93
2019-03-19T20:10:49.854Z,97270.66
2019-03-19T20:13:18.443Z,97272.30
2019-03-19T20:15:45.681Z,97276.73
2019-03-19T20:20:52.219Z,97275.71
2019-03-19T20:23:19.481Z,97273.80
2019-03-19T20:25:48.962Z,97278.48
2019-03-19T20:28:21.974Z,97278.48
2019-03-19T20:31:02.288Z,97279.13
2019-03-19T20:33:30.783Z,97272.77
2019-03-19T20:36:03.550Z,97281.98
2019-03-19T20:46:21.762Z,97293.52
2019-03-19T20:48:49.967Z,97299.59
2019-03-19T20:51:23.550Z,97304.45
2019-03-19T20:53:50.720Z,97301.84
2019-03-19T20:56:22.125Z,97303.41
2019-03-19T21:01:22.391Z,97313.53
2019-03-19T21:03:51.587Z,97313.80
2019-03-19T21:06:19.120Z,97317.83
2019-03-19T21:11:36.356Z,97328.86
2019-03-19T21:19:10.201Z,97323.63
2019-03-19T21:21:42.552Z,97326.94
2019-03-19T21:24:23.788Z,97324.53
2019-03-19T21:26:51.056Z,97328.95
2019-03-19T21:29:22.709Z,97337.14
2019-03-19T21:31:50.969Z,97337.48
2019-03-19T21:34:28.581Z,97337.36
2019-03-19T21:36:56.856Z,97341.66
2019-03-19T21:39:29.193Z,97341.33
2019-03-19T21:41:57.767Z,97346.47
2019-03-19T21:44:28.404Z,97341.81
2019-03-19T21:47:02.637Z,97343.72
2019-03-19T21:52:24.971Z,97348.94
2019-03-19T21:57:34.912Z,97350.26
2019-03-19T22:00:02.130Z,97350.42
2019-03-19T22:02:31.055Z,97352.78
2019-03-19T22:04:58.105Z,97362.00
2019-03-19T22:07:25.564Z,97363.98
2019-03-19T22:09:52.608Z,97362.09
2019-03-19T22:12:19.639Z,97365.13
2019-03-19T22:14:47.013Z,97362.48
2019-03-19T22:17:14.047Z,97363.98
2019-03-19T22:19:41.092Z,97366.32
2019-03-19T22:22:08.288Z,97369.87
2019-03-19T22:24:35.332Z,97368.20
2019-03-19T22:27:02.370Z,97368.81
2019-03-19T22:29:29.569Z,97366.40
2019-03-19T22:31:56.615Z,97366.48
2019-03-19T22:34:23.908Z,97365.27
2019-03-19T22:36:51.284Z,97366.26
2019-03-19T22:39:18.621Z,97364.75
2019-03-19T22:41:45.676Z,97368.77
2019-03-19T22:44:13.021Z,97371.05
2019-03-19T22:46:40.207Z,97377.10
2019-03-19T22:49:07.238Z,97375.89
2019-03-19T22:51:34.592Z,97379.37
2019-03-19T22:54:01.945Z,97375.30
2019-03-19T22:56:29.240Z,97378.93
2019-03-19T22:58:56.555Z,97385.45
2019-03-19T23:01:25.022Z,97389.61
2019-03-19T23:03:52.392Z,97389.48
2019-03-19T23:06:19.440Z,97391.76
2019-03-19T23:08:46.777Z,97388.58
2019-03-19T23:11:13.836Z,97395.16
2019-03-19T23:13:40.886Z,97388.05
2019-03-19T23:16:08.232Z,97388.20
2019-03-19T23:18:35.689Z,97392.66
2019-03-19T23:21:02.752Z,97393.94
2019-03-19T23:23:30.215Z,97399.08
2019-03-19T23:25:57.268Z,97395.83
2019-03-19T23:28:24.597Z,97395.97
2019-03-19T23:30:53.266Z,97395.59
2019-03-19T23:33:20.544Z,97393.86
2019-03-19T23:35:47.590Z,97400.20
2019-03-19T23:38:14.941Z,97401.27
2019-03-19T23:40:41.989Z,97396.96
2019-03-19T23:43:09.025Z,97398.78
2019-03-19T23:45:36.067Z,97395.36
2019-03-19T23:48:03.105Z,97390.78
2019-03-19T23:50:30.148Z,97391.81
2019-03-19T23:52:57.427Z,97389.48
2019-03-19T23:55:24.480Z,97390.28
2019-03-19T23:57:51.837Z,97393.45
